createdAt,value
2018-11-23T00:00:21.875Z,3.26
2018-11-23T00:02:50.922Z,3.41
2018-11-23T00:05:19.801Z,3.34
2018-11-23T00:07:48.839Z,3.46
2018-11-23T00:10:19.744Z,3.50
2018-11-23T00:12:48.768Z,3.52
2018-11-23T00:15:18.450Z,3.49
2018-11-23T00:17:46.990Z,3.51
2018-11-23T00:20:16.881Z,3.31
2018-11-23T00:22:45.370Z,3.31
2018-11-23T00:25:15.127Z,3.32
2018-11-23T00:27:43.658Z,3.31
2018-11-23T00:30:16.407Z,3.36
2018-11-23T00:32:45.634Z,3.30
2018-11-23T00:35:16.111Z,3.34
2018-11-23T00:37:45.166Z,3.45
2018-11-23T00:40:18.421Z,3.51
2018-11-23T00:42:46.940Z,3.42
2018-11-23T00:45:15.559Z,3.54
2018-11-23T00:47:45.064Z,3.40
2018-11-23T00:50:14.975Z,3.28
2018-11-23T00:52:44.100Z,3.27
2018-11-23T00:55:14.313Z,3.29
2018-11-23T00:57:43.655Z,3.36
2018-11-23T01:00:16.511Z,3.33
2018-11-23T01:02:45.298Z,3.40
2018-11-23T01:05:15.369Z,3.38
2018-11-23T01:07:44.390Z,3.43
2018-11-23T01:10:14.384Z,3.33
2018-11-23T01:12:43.821Z,3.41
2018-11-23T01:15:12.521Z,3.31
2018-11-23T01:17:41.083Z,3.22
2018-11-23T01:20:12.743Z,3.32
2018-11-23T01:22:41.662Z,3.40
2018-11-23T01:25:11.776Z,3.35
2018-11-23T01:27:42.025Z,3.35
2018-11-23T01:30:14.109Z,3.21
2018-11-23T01:32:42.634Z,3.17
2018-11-23T01:35:11.257Z,3.25
2018-11-23T01:37:39.799Z,3.24
2018-11-23T01:40:10.260Z,3.33
2018-11-23T01:42:38.804Z,3.32
2018-11-23T01:45:09.293Z,3.43
2018-11-23T01:47:38.772Z,3.55
2018-11-23T01:50:13.438Z,3.48
2018-11-23T01:52:42.055Z,3.31
2018-11-23T01:55:11.852Z,3.38
2018-11-23T01:57:41.191Z,3.35
2018-11-23T02:00:13.195Z,3.34
2018-11-23T02:02:41.714Z,3.38
2018-11-23T02:05:10.846Z,3.35
2018-11-23T02:07:39.863Z,3.34
2018-11-23T02:10:09.575Z,3.51
2018-11-23T02:12:38.106Z,3.40
2018-11-23T02:15:10.618Z,3.38
2018-11-23T02:17:39.193Z,3.37
2018-11-23T02:20:11.188Z,3.24
2018-11-23T02:22:39.738Z,3.23
2018-11-23T02:25:08.731Z,3.04
2018-11-23T02:27:37.406Z,2.95
2018-11-23T02:30:12.019Z,2.97
2018-11-23T02:32:41.047Z,2.89
2018-11-23T02:35:09.602Z,2.71
2018-11-23T02:37:38.196Z,2.55
2018-11-23T02:40:07.616Z,2.53
2018-11-23T02:42:36.419Z,2.43
2018-11-23T02:45:05.732Z,2.29
2018-11-23T02:47:34.223Z,2.24
2018-11-23T02:50:02.679Z,2.44
2018-11-23T02:52:31.208Z,2.54
2018-11-23T02:54:59.719Z,2.66
2018-11-23T02:57:28.286Z,2.72
2018-11-23T02:59:56.750Z,2.68
2018-11-23T03:02:25.290Z,2.69
2018-11-23T03:04:53.832Z,2.81
2018-11-23T03:07:22.572Z,2.90
2018-11-23T03:09:51.140Z,2.90
2018-11-23T03:12:19.691Z,2.94
2018-11-23T03:14:48.243Z,3.01
2018-11-23T03:17:17.387Z,3.06
2018-11-23T03:19:45.887Z,3.07
2018-11-23T03:22:14.414Z,3.04
2018-11-23T03:24:42.911Z,3.04
2018-11-23T03:27:11.400Z,2.98
2018-11-23T03:29:39.929Z,2.89
2018-11-23T03:32:08.395Z,2.98
2018-11-23T03:34:36.928Z,2.84
2018-11-23T03:37:05.505Z,2.76
2018-11-23T03:39:34.292Z,3.00
2018-11-23T03:42:03.214Z,2.88
2018-11-23T03:44:31.710Z,2.79
2018-11-23T03:47:00.266Z,2.82
2018-11-23T03:49:28.786Z,2.96
2018-11-23T03:51:57.328Z,2.96
2018-11-23T03:54:25.832Z,2.91
2018-11-23T03:56:54.354Z,3.00
2018-11-23T03:59:22.900Z,2.92
2018-11-23T04:01:51.415Z,2.70
2018-11-23T04:04:19.918Z,2.63
2018-11-23T04:06:48.607Z,2.60
2018-11-23T04:09:17.770Z,2.57
2018-11-23T04:11:46.286Z,2.62
2018-11-23T04:14:14.845Z,2.64
2018-11-23T04:16:43.343Z,2.51
2018-11-23T04:19:11.829Z,2.47
2018-11-23T04:21:40.390Z,2.55
2018-11-23T04:24:08.922Z,2.53
2018-11-23T04:26:37.420Z,2.36
2018-11-23T04:29:06.374Z,2.38
2018-11-23T04:31:34.957Z,2.33
2018-11-23T04:34:03.446Z,2.17
2018-11-23T04:36:32.003Z,2.21
2018-11-23T04:39:00.507Z,2.16
2018-11-23T04:41:29.015Z,2.01
2018-11-23T04:43:57.546Z,1.90
2018-11-23T04:46:26.195Z,1.82
2018-11-23T04:48:54.697Z,1.66
2018-11-23T04:51:23.180Z,1.74
2018-11-23T04:53:51.670Z,1.64
2018-11-23T04:56:20.211Z,1.59
2018-11-23T04:58:48.715Z,1.66
2018-11-23T05:01:17.321Z,1.59
2018-11-23T05:03:45.879Z,1.50
2018-11-23T05:06:14.455Z,1.46
2018-11-23T05:08:42.951Z,1.50
2018-11-23T05:11:11.523Z,1.61
2018-11-23T05:13:40.106Z,1.52
2018-11-23T05:16:08.622Z,1.54
2018-11-23T05:18:37.133Z,1.70
2018-11-23T05:21:05.827Z,1.62
2018-11-23T05:23:34.343Z,1.55
2018-11-23T05:26:02.855Z,1.53
2018-11-23T05:28:31.405Z,1.61
2018-11-23T05:30:59.959Z,1.71
2018-11-23T05:33:28.502Z,1.53
2018-11-23T05:35:57.061Z,1.45
2018-11-23T05:38:25.550Z,1.42
2018-11-23T05:40:55.078Z,1.35
2018-11-23T05:43:24.219Z,1.33
2018-11-23T05:45:53.878Z,1.16
2018-11-23T05:48:26.971Z,1.04
2018-11-23T05:50:52.305Z,0.91
2018-11-23T05:53:20.870Z,0.88
2018-11-23T05:55:49.355Z,0.92
2018-11-23T05:58:17.854Z,0.99
2018-11-23T06:00:46.526Z,1.10
2018-11-23T06:03:15.025Z,1.11
2018-11-23T06:05:43.548Z,1.02
2018-11-23T06:08:12.055Z,1.03
2018-11-23T06:10:40.757Z,1.06
2018-11-23T06:13:10.138Z,1.04
2018-11-23T06:15:44.409Z,1.13
2018-11-23T06:18:07.323Z,1.12
2018-11-23T06:20:35.872Z,1.03
2018-11-23T06:23:04.586Z,1.07
2018-11-23T06:25:35.930Z,1.17
2018-11-23T06:28:04.878Z,1.17
2018-11-23T06:30:33.399Z,0.95
2018-11-23T06:33:13.537Z,0.96
2018-11-23T06:35:42.222Z,0.82
2018-11-23T06:38:10.682Z,0.66
2018-11-23T06:40:39.231Z,0.70
2018-11-23T06:43:07.727Z,0.90
2018-11-23T06:45:38.250Z,0.82
2018-11-23T06:48:07.591Z,0.87
2018-11-23T06:50:36.736Z,0.84
2018-11-23T06:53:05.643Z,0.77
2018-11-23T06:55:34.163Z,0.88
2018-11-23T06:58:02.774Z,0.78
2018-11-23T07:00:31.358Z,0.65
2018-11-23T07:02:59.862Z,0.53
2018-11-23T07:05:28.405Z,0.50
2018-11-23T07:07:56.935Z,0.41
2018-11-23T07:10:25.541Z,0.38
2018-11-23T07:12:54.054Z,0.40
2018-11-23T07:15:22.583Z,0.38
2018-11-23T07:17:51.138Z,0.33
2018-11-23T07:20:19.643Z,0.30
2018-11-23T07:22:48.724Z,0.28
2018-11-23T07:25:17.238Z,0.35
2018-11-23T07:27:45.794Z,0.33
2018-11-23T07:30:16.800Z,0.32
2018-11-23T07:32:45.558Z,0.32
2018-11-23T07:35:15.156Z,0.37
2018-11-23T07:37:43.668Z,0.41
2018-11-23T07:40:24.951Z,0.45
2018-11-23T07:42:54.147Z,0.49
2018-11-23T07:45:22.659Z,0.53
2018-11-23T07:47:51.190Z,0.57
2018-11-23T07:50:19.694Z,0.58
2018-11-23T07:52:48.411Z,0.63
2018-11-23T07:55:16.952Z,0.62
2018-11-23T07:57:46.026Z,0.73
2018-11-23T08:00:18.035Z,0.87
2018-11-23T08:02:47.355Z,0.80
2018-11-23T08:05:16.954Z,1.00
2018-11-23T08:07:46.273Z,1.16
2018-11-23T08:10:14.862Z,1.14
2018-11-23T08:12:44.675Z,1.10
2018-11-23T08:15:18.769Z,1.13
2018-11-23T08:17:47.334Z,1.17
2018-11-23T08:20:17.356Z,1.17
2018-11-23T08:22:46.076Z,1.10
2018-11-23T08:25:15.843Z,1.10
2018-11-23T08:27:45.251Z,1.08
2018-11-23T08:30:16.963Z,1.11
2018-11-23T08:32:45.646Z,1.20
2018-11-23T08:35:14.518Z,1.35
2018-11-23T08:37:43.107Z,1.57
2018-11-23T08:40:13.891Z,1.49
2018-11-23T08:42:43.084Z,1.47
2018-11-23T08:45:14.167Z,1.61
2018-11-23T08:47:42.697Z,1.67
2018-11-23T08:50:15.928Z,1.69
2018-11-23T08:52:45.443Z,1.65
2018-11-23T08:55:14.843Z,1.63
2018-11-23T08:57:43.523Z,1.62
2018-11-23T09:00:16.428Z,1.70
2018-11-23T09:02:46.070Z,1.68
2018-11-23T09:05:15.127Z,1.74
2018-11-23T09:07:44.578Z,1.79
2018-11-23T09:10:15.504Z,1.84
2018-11-23T09:12:45.250Z,1.94
2018-11-23T09:15:14.643Z,1.98
2018-11-23T09:17:44.281Z,1.96
2018-11-23T09:20:13.471Z,2.11
2018-11-23T09:22:42.069Z,2.05
2018-11-23T09:25:19.937Z,2.01
2018-11-23T09:27:48.438Z,2.00
2018-11-23T09:30:20.174Z,2.06
2018-11-23T09:32:49.518Z,2.10
2018-11-23T09:35:18.024Z,2.16
2018-11-23T09:37:47.012Z,2.21
2018-11-23T09:40:20.005Z,2.24
2018-11-23T09:42:48.820Z,2.28
2018-11-23T09:45:20.071Z,2.38
2018-11-23T09:47:49.646Z,2.48
2018-11-23T09:50:20.328Z,2.63
2018-11-23T09:52:50.189Z,2.67
2018-11-23T09:55:19.398Z,2.69
2018-11-23T09:57:47.934Z,2.83
2018-11-23T10:00:20.942Z,2.94
2018-11-23T10:02:50.335Z,2.86
2018-11-23T10:05:19.780Z,2.88
2018-11-23T10:07:50.703Z,2.92
2018-11-23T10:10:20.098Z,3.15
2018-11-23T10:12:48.809Z,3.20
2018-11-23T10:15:18.234Z,3.35
2018-11-23T10:17:46.720Z,3.32
2018-11-23T10:20:24.644Z,3.31
2018-11-23T10:22:53.293Z,3.52
2018-11-23T10:25:23.297Z,3.55
2018-11-23T10:27:51.849Z,3.59
2018-11-23T10:30:22.722Z,3.54
2018-11-23T10:32:52.426Z,3.57
2018-11-23T10:35:20.940Z,3.69
2018-11-23T10:37:51.107Z,3.82
2018-11-23T10:40:22.656Z,3.91
2018-11-23T10:42:51.214Z,3.85
2018-11-23T10:45:22.065Z,3.93
2018-11-23T10:47:51.391Z,4.16
2018-11-23T10:50:22.283Z,4.00
2018-11-23T10:52:51.608Z,4.17
2018-11-23T10:55:21.842Z,4.21
2018-11-23T10:57:50.524Z,4.31
2018-11-23T11:00:25.016Z,4.26
2018-11-23T11:02:59.844Z,4.38
2018-11-23T11:05:33.743Z,4.58
2018-11-23T11:08:03.086Z,4.62
2018-11-23T11:10:31.652Z,4.76
2018-11-23T11:13:00.272Z,4.68
2018-11-23T11:15:28.778Z,4.72
2018-11-23T11:17:57.315Z,4.85
2018-11-23T11:20:25.867Z,4.92
2018-11-23T11:22:54.411Z,4.94
2018-11-23T11:25:22.996Z,4.99
2018-11-23T11:27:51.848Z,5.02
2018-11-23T11:30:20.829Z,5.10
2018-11-23T11:32:49.793Z,5.06
2018-11-23T11:35:18.339Z,5.09
2018-11-23T11:37:46.993Z,5.13
2018-11-23T11:40:16.990Z,5.21
2018-11-23T11:42:45.741Z,5.28
2018-11-23T11:45:15.580Z,5.31
2018-11-23T11:47:44.705Z,5.28
2018-11-23T11:50:14.346Z,5.23
2018-11-23T11:52:44.089Z,5.17
2018-11-23T11:55:14.752Z,5.30
2018-11-23T11:57:43.918Z,5.30
2018-11-23T12:00:15.564Z,5.36
2018-11-23T12:02:44.077Z,5.67
2018-11-23T12:05:13.461Z,5.70
2018-11-23T12:07:42.605Z,5.73
2018-11-23T12:10:14.655Z,5.79
2018-11-23T12:12:43.182Z,5.78
2018-11-23T12:15:12.406Z,6.01
2018-11-23T12:17:41.274Z,5.85
2018-11-23T12:20:12.577Z,5.73
2018-11-23T12:22:41.492Z,5.85
2018-11-23T12:25:10.160Z,5.93
2018-11-23T12:27:38.695Z,5.79
2018-11-23T12:30:11.183Z,5.79
2018-11-23T12:32:40.135Z,5.86
2018-11-23T12:35:10.015Z,5.87
2018-11-23T12:37:38.728Z,5.92
2018-11-23T12:40:10.107Z,5.90
2018-11-23T12:42:38.673Z,5.94
2018-11-23T12:45:10.161Z,5.84
2018-11-23T12:47:39.593Z,5.84
2018-11-23T12:50:12.235Z,5.75
2018-11-23T12:52:40.980Z,5.74
2018-11-23T12:55:10.270Z,5.83
2018-11-23T12:57:39.195Z,5.80
2018-11-23T13:00:16.626Z,5.88
2018-11-23T13:02:46.035Z,5.91
2018-11-23T13:05:14.566Z,5.71
2018-11-23T13:07:43.204Z,5.80
2018-11-23T13:10:11.782Z,5.87
2018-11-23T13:12:40.509Z,5.95
2018-11-23T13:15:09.038Z,5.96
2018-11-23T13:17:37.686Z,5.91
2018-11-23T13:20:08.841Z,6.03
2018-11-23T13:22:37.502Z,5.98
2018-11-23T13:25:08.829Z,5.96
2018-11-23T13:27:37.929Z,5.92
2018-11-23T13:30:13.547Z,5.97
2018-11-23T13:32:42.906Z,5.96
2018-11-23T13:35:13.160Z,5.81
2018-11-23T13:37:41.966Z,5.89
2018-11-23T13:40:13.528Z,5.90
2018-11-23T13:42:42.258Z,5.91
2018-11-23T13:45:12.854Z,5.91
2018-11-23T13:47:41.722Z,5.94
2018-11-23T13:50:12.348Z,5.78
2018-11-23T13:52:41.424Z,5.88
2018-11-23T13:55:09.995Z,5.90
2018-11-23T13:57:38.613Z,5.86
2018-11-23T14:05:11.658Z,5.62
2018-11-23T14:07:40.461Z,5.73
2018-11-23T14:10:11.155Z,5.84
2018-11-23T14:12:39.678Z,5.88
2018-11-23T14:15:11.155Z,5.79
2018-11-23T14:17:40.583Z,5.83
2018-11-23T14:20:10.930Z,5.76
2018-11-23T14:22:39.508Z,5.71
2018-11-23T14:25:10.302Z,5.59
2018-11-23T14:27:38.818Z,5.51
2018-11-23T14:30:13.395Z,5.62
2018-11-23T14:32:42.099Z,5.63
2018-11-23T14:35:12.690Z,5.57
2018-11-23T14:37:41.835Z,5.43
2018-11-23T14:40:11.522Z,5.40
2018-11-23T14:42:41.180Z,5.44
2018-11-23T14:45:12.936Z,5.38
2018-11-23T14:47:42.079Z,5.25
2018-11-23T14:50:13.688Z,5.23
2018-11-23T14:52:43.233Z,5.18
2018-11-23T14:55:11.778Z,5.16
2018-11-23T14:57:41.331Z,5.11
2018-11-23T15:00:14.155Z,5.08
2018-11-23T15:02:43.322Z,5.01
2018-11-23T15:05:11.827Z,4.90
2018-11-23T15:07:40.509Z,4.86
2018-11-23T15:10:12.251Z,4.84
2018-11-23T15:12:40.831Z,4.91
2018-11-23T15:15:13.626Z,4.82
2018-11-23T15:17:42.772Z,4.62
2018-11-23T15:20:16.219Z,4.54
2018-11-23T15:25:19.117Z,4.51
2018-11-23T15:27:47.611Z,4.42
2018-11-23T15:30:20.023Z,4.44
2018-11-23T15:32:48.713Z,4.44
2018-11-23T15:35:17.722Z,4.53
2018-11-23T15:37:46.328Z,4.56
2018-11-23T15:40:17.560Z,4.74
2018-11-23T15:42:46.959Z,4.97
2018-11-23T15:45:17.064Z,4.95
2018-11-23T15:47:45.650Z,4.88
2018-11-23T15:50:18.483Z,5.12
2018-11-23T15:52:47.498Z,5.12
2018-11-23T15:55:18.870Z,5.10
2018-11-23T15:57:48.269Z,5.01
2018-11-23T16:00:22.352Z,4.98
2018-11-23T16:02:51.221Z,4.99
2018-11-23T16:05:19.876Z,4.99
2018-11-23T16:07:48.938Z,4.97
2018-11-23T16:10:21.956Z,4.95
2018-11-23T16:12:58.403Z,4.87
2018-11-23T16:15:27.525Z,4.84
2018-11-23T16:17:56.711Z,4.84
2018-11-23T16:20:28.793Z,4.81
2018-11-23T16:22:59.830Z,4.83
2018-11-23T16:25:28.354Z,4.82
2018-11-23T16:27:58.370Z,4.80
2018-11-23T16:30:29.178Z,4.77
2018-11-23T16:32:58.930Z,4.78
2018-11-23T16:35:28.997Z,4.72
2018-11-23T16:37:58.730Z,4.82
2018-11-23T16:40:29.073Z,4.80
2018-11-23T16:42:59.095Z,4.80
2018-11-23T16:45:29.075Z,4.72
2018-11-23T16:47:58.735Z,4.72
2018-11-23T16:50:27.707Z,4.62
2018-11-23T16:52:56.779Z,4.70
2018-11-23T16:55:25.627Z,4.73
2018-11-23T16:57:57.540Z,4.64
2018-11-23T17:00:41.986Z,4.66
2018-11-23T17:03:12.647Z,4.63
2018-11-23T17:05:42.709Z,4.63
2018-11-23T17:08:11.641Z,4.68
2018-11-23T17:10:40.380Z,4.69
2018-11-23T17:13:08.939Z,4.68
2018-11-23T17:15:37.426Z,4.64
2018-11-23T17:18:06.882Z,4.67
2018-11-23T17:20:35.827Z,4.61
2018-11-23T17:23:07.085Z,4.64
2018-11-23T17:25:35.783Z,4.62
2018-11-23T17:28:05.785Z,4.63
2018-11-23T17:30:35.174Z,4.65
2018-11-23T17:33:03.903Z,4.57
2018-11-23T17:35:32.437Z,4.55
2018-11-23T17:38:01.035Z,4.68
2018-11-23T17:40:31.499Z,4.51
2018-11-23T17:43:00.015Z,4.63
2018-11-23T17:45:30.785Z,4.67
2018-11-23T17:47:59.470Z,4.63
2018-11-23T17:50:29.389Z,4.68
2018-11-23T17:52:58.340Z,4.62
2018-11-23T17:55:27.630Z,4.69
2018-11-23T17:57:56.636Z,4.64
2018-11-23T18:00:27.652Z,4.66
2018-11-23T18:02:56.807Z,4.63
2018-11-23T18:05:26.194Z,4.56
2018-11-23T18:07:54.954Z,4.52
2018-11-23T18:10:24.864Z,4.57
2018-11-23T18:12:53.958Z,4.58
2018-11-23T18:15:24.435Z,4.61
2018-11-23T18:17:53.987Z,4.47
2018-11-23T18:20:23.468Z,4.53
2018-11-23T18:22:52.962Z,4.53
2018-11-23T18:25:22.928Z,4.45
2018-11-23T18:27:55.587Z,4.52
2018-11-23T18:30:24.420Z,4.49
2018-11-23T18:32:53.571Z,4.41
2018-11-23T18:35:22.196Z,4.46
2018-11-23T18:37:51.189Z,4.37
2018-11-23T18:40:19.843Z,4.44
2018-11-23T18:42:48.650Z,4.34
2018-11-23T18:45:17.318Z,4.25
2018-11-23T18:47:46.013Z,4.23
2018-11-23T18:50:16.800Z,4.26
2018-11-23T18:52:45.510Z,4.21
2018-11-23T18:55:18.330Z,4.17
2018-11-23T18:57:44.636Z,4.16
2018-11-23T19:00:14.258Z,4.13
2018-11-23T19:02:43.731Z,4.05
2018-11-23T19:05:16.555Z,4.07
2018-11-23T19:07:51.692Z,4.08
2018-11-23T19:10:20.306Z,4.03
2018-11-23T19:12:48.976Z,3.98
2018-11-23T19:15:25.200Z,3.94
2018-11-23T19:17:48.097Z,3.83
2018-11-23T19:20:18.979Z,3.84
2018-11-23T19:22:49.057Z,3.83
2018-11-23T19:25:18.054Z,3.74
2018-11-23T19:27:46.910Z,3.64
2018-11-23T19:30:16.820Z,3.69
2018-11-23T19:32:45.763Z,3.49
2018-11-23T19:35:14.465Z,3.48
2018-11-23T19:37:43.224Z,3.41
2018-11-23T19:40:16.450Z,3.44
2018-11-23T19:42:45.779Z,3.39
2018-11-23T19:45:15.504Z,3.28
2018-11-23T19:47:44.129Z,3.25
2018-11-23T19:50:15.015Z,3.15
2018-11-23T19:52:44.279Z,3.17
2018-11-23T19:55:13.810Z,3.10
2018-11-23T19:57:42.741Z,3.05
2018-11-23T20:00:23.693Z,3.07
2018-11-23T20:02:53.446Z,3.01
2018-11-23T20:05:22.646Z,2.87
2018-11-23T20:07:53.958Z,2.85
2018-11-23T20:10:24.247Z,2.83
2018-11-23T20:12:54.490Z,2.73
2018-11-23T20:15:23.400Z,2.81
2018-11-23T20:17:52.140Z,2.80
2018-11-23T20:20:21.037Z,2.72
2018-11-23T20:22:50.671Z,2.59
2018-11-23T20:25:20.526Z,2.62
2018-11-23T20:27:50.763Z,2.64
2018-11-23T20:30:20.034Z,2.53
2018-11-23T20:32:49.045Z,2.51
2018-11-23T20:35:20.178Z,2.51
2018-11-23T20:37:48.911Z,2.40
2018-11-23T20:40:19.555Z,2.40
2018-11-23T20:42:48.169Z,2.34
2018-11-23T20:45:16.775Z,2.30
2018-11-23T20:47:45.339Z,2.32
2018-11-23T20:50:14.978Z,2.28
2018-11-23T20:52:43.560Z,2.33
2018-11-23T20:55:15.260Z,2.28
2018-11-23T20:57:44.014Z,2.23
2018-11-23T21:00:15.448Z,2.20
2018-11-23T21:02:44.530Z,2.15
2018-11-23T21:05:14.143Z,2.12
2018-11-23T21:07:42.751Z,2.08
2018-11-23T21:10:20.057Z,2.12
2018-11-23T21:12:41.998Z,2.03
2018-11-23T21:15:18.058Z,1.94
2018-11-23T21:17:46.599Z,1.99
2018-11-23T21:20:15.162Z,1.92
2018-11-23T21:22:43.661Z,1.88
2018-11-23T21:25:12.242Z,1.87
2018-11-23T21:27:40.865Z,1.94
2018-11-23T21:30:12.947Z,1.90
2018-11-23T21:32:41.475Z,1.94
2018-11-23T21:35:10.758Z,1.93
2018-11-23T21:37:39.336Z,1.91
2018-11-23T21:40:14.178Z,1.97
2018-11-23T21:42:42.806Z,1.95
2018-11-23T21:45:17.199Z,1.90
2018-11-23T21:47:45.811Z,1.90
2018-11-23T21:50:16.365Z,1.90
2018-11-23T21:52:44.985Z,1.95
2018-11-23T21:55:15.009Z,1.90
2018-11-23T21:57:43.536Z,1.98
2018-11-23T22:00:13.258Z,2.04
2018-11-23T22:02:41.826Z,2.04
2018-11-23T22:05:10.626Z,2.07
2018-11-23T22:07:39.258Z,2.04
2018-11-23T22:10:11.187Z,2.07
2018-11-23T22:12:39.694Z,2.11
2018-11-23T22:15:10.563Z,2.12
2018-11-23T22:17:39.222Z,2.14
2018-11-23T22:20:12.902Z,2.15
2018-11-23T22:22:41.458Z,2.13
2018-11-23T22:25:11.371Z,2.16
2018-11-23T22:27:39.973Z,2.15
2018-11-23T22:30:17.938Z,2.14
2018-11-23T22:32:46.450Z,2.19
2018-11-23T22:35:15.228Z,2.17
2018-11-23T22:37:43.739Z,2.22
2018-11-23T22:40:16.709Z,2.15
2018-11-23T22:42:46.438Z,2.26
2018-11-23T22:45:15.924Z,2.25
2018-11-23T22:47:44.578Z,2.23
2018-11-23T22:50:17.978Z,2.20
2018-11-23T22:52:47.727Z,2.23
2018-11-23T22:55:16.122Z,2.26
2018-11-23T22:57:44.655Z,2.26
2018-11-23T23:00:23.358Z,2.26
2018-11-23T23:02:52.278Z,2.27
2018-11-23T23:05:24.911Z,2.21
2018-11-23T23:07:53.552Z,2.25
2018-11-23T23:10:23.059Z,2.26
2018-11-23T23:12:51.549Z,2.25
2018-11-23T23:15:20.070Z,2.29
2018-11-23T23:17:48.605Z,2.29
2018-11-23T23:20:19.240Z,2.29
2018-11-23T23:22:47.784Z,2.30
2018-11-23T23:25:16.355Z,2.31
2018-11-23T23:27:44.896Z,2.30
2018-11-23T23:30:16.599Z,2.28
2018-11-23T23:32:45.837Z,2.24
2018-11-23T23:35:15.337Z,2.24
2018-11-23T23:37:43.881Z,2.31
2018-11-23T23:40:14.455Z,2.31
2018-11-23T23:42:43.024Z,2.35
2018-11-23T23:45:13.382Z,2.33
2018-11-23T23:47:41.987Z,2.26
2018-11-23T23:50:11.936Z,2.35
2018-11-23T23:52:40.532Z,2.30
2018-11-23T23:55:09.835Z,2.30
2018-11-23T23:57:38.898Z,2.31
